Anoka County-Blaine Arpt(Janes Field) Airport


Codes: KANE/
Name: Anoka County-Blaine Arpt(Janes Field) Airport
City: Minneapolis
Country: United States
Elevation: 912 ft.

Photos at Anoka County-Blaine Arpt(Janes Field) Airport


   Photos courtesy of SpottingLog. You can add your own sightings and photos by signing up for a free trial today.



No photos found.

Weather at Anoka County-Blaine Arpt(Janes Field) Airport


Time (UTC)DescriptionTempratureWindCloud coverageVisibilityPressureHumidity
19-Apr-2024 06:00Scattered Clouds4°C11 mph, W29%10000m1019hPa52%
19-Apr-2024 09:00Few Clouds3°C11 mph, W13%10000m1018hPa50%
19-Apr-2024 12:00Clear Sky1°C13 mph, W0%10000m1018hPa48%
19-Apr-2024 15:00Broken Clouds3°C18 mph, W55%10000m1019hPa42%
19-Apr-2024 18:00Broken Clouds4°C18 mph, W78%10000m1019hPa38%
19-Apr-2024 21:00Overcast Clouds6°C18 mph, W100%10000m1018hPa36%
20-Apr-2024 00:00Overcast Clouds5°C16 mph, W100%10000m1019hPa44%
20-Apr-2024 03:00Broken Clouds3°C13 mph, NW63%10000m1021hPa54%
20-Apr-2024 06:00Broken Clouds1°C13 mph, NW54%10000m1022hPa63%
20-Apr-2024 09:00Clear Sky-0°C13 mph, NW8%10000m1024hPa66%
20-Apr-2024 12:00Scattered Clouds-0°C11 mph, NW26%10000m1026hPa73%
20-Apr-2024 15:00Overcast Clouds2°C13 mph, NW100%10000m1027hPa53%
20-Apr-2024 18:00Overcast Clouds7°C11 mph, NW100%10000m1025hPa41%
20-Apr-2024 21:00Overcast Clouds9°C13 mph, NW92%10000m1023hPa30%
21-Apr-2024 00:00Scattered Clouds8°C11 mph, NW46%10000m1023hPa33%
21-Apr-2024 03:00Clear Sky5°C7 mph, W0%10000m1023hPa47%
21-Apr-2024 06:00Clear Sky4°C7 mph, W0%10000m1023hPa52%
21-Apr-2024 09:00Clear Sky3°C7 mph, W0%10000m1022hPa55%
21-Apr-2024 12:00Clear Sky2°C7 mph, W0%10000m1022hPa58%
21-Apr-2024 15:00Clear Sky9°C11 mph, W0%10000m1021hPa42%
21-Apr-2024 18:00Clear Sky13°C11 mph, W0%10000m1019hPa32%
21-Apr-2024 21:00Clear Sky14°C11 mph, W0%10000m1017hPa28%
22-Apr-2024 00:00Clear Sky13°C7 mph, W0%10000m1016hPa34%
22-Apr-2024 03:00Clear Sky9°C4 mph, SW4%10000m1016hPa44%
22-Apr-2024 06:00Clear Sky8°C4 mph, SW8%10000m1015hPa46%
22-Apr-2024 09:00Overcast Clouds7°C7 mph, S100%10000m1014hPa50%
22-Apr-2024 12:00Overcast Clouds7°C4 mph, S100%10000m1013hPa54%
22-Apr-2024 15:00Broken Clouds12°C9 mph, S79%10000m1010hPa47%
22-Apr-2024 18:00Overcast Clouds16°C13 mph, S90%10000m1007hPa36%
22-Apr-2024 21:00Moderate Rain9°C11 mph, SE100%6755m1007hPa86%
23-Apr-2024 00:00Moderate Rain9°C11 mph, SE100%10000m1005hPa92%
23-Apr-2024 03:00Light Rain9°C7 mph, SE100%10000m1004hPa93%
23-Apr-2024 06:00Broken Clouds7°C9 mph, W76%10000m1003hPa90%
23-Apr-2024 09:00Few Clouds7°C7 mph, NW23%10000m1003hPa91%
23-Apr-2024 12:00Light Snow2°C16 mph, N62%3440m1008hPa93%
23-Apr-2024 15:00Light Snow2°C18 mph, N100%10000m1014hPa82%
23-Apr-2024 18:00Overcast Clouds7°C18 mph, N89%10000m1018hPa51%
23-Apr-2024 21:00Few Clouds9°C13 mph, N14%10000m1020hPa41%
24-Apr-2024 00:00Broken Clouds8°C9 mph, NE54%10000m1022hPa45%
24-Apr-2024 03:00Clear Sky4°C11 mph, E10%10000m1027hPa55%